Time;durP1;ratioP1;P1;durP2;ratioP2;P2;SDS_P1;SDS_P2;PMS_P1;PMS_P2;Temp;Humidity;BMP_temperature;BMP_pressure;BME280_temperature;BME280_humidity;BME280_pressure;Samples;Min_cycle;Max_cycle;Signal;HPM_P1;HPM_P2
2023/04/14 00:01:40;;;;;;;5.13;1.13;;;10.40;91.60;;;;;;5078916;28;20067;-79
2023/04/14 00:04:06;;;;;;;5.43;1.15;;;10.50;91.70;;;;;;5045647;28;20062;-79
2023/04/14 00:06:32;;;;;;;2.72;0.98;;;10.50;91.70;;;;;;5079091;28;20048;-79
2023/04/14 00:08:57;;;;;;;4.47;1.10;;;10.60;91.60;;;;;;5045921;28;20032;-79
2023/04/14 00:11:23;;;;;;;5.60;1.38;;;10.70;91.50;;;;;;5062423;28;20039;-79
2023/04/14 00:13:49;;;;;;;7.95;1.50;;;10.70;91.50;;;;;;5097180;28;20037;-79
2023/04/14 00:16:14;;;;;;;3.65;0.98;;;10.70;91.40;;;;;;5062398;28;20071;-79
2023/04/14 00:18:40;;;;;;;5.90;1.60;;;10.80;91.40;;;;;;5078988;28;20028;-79
2023/04/14 00:21:06;;;;;;;5.78;1.40;;;10.70;91.50;;;;;;5062312;28;20386;-78
2023/04/14 00:23:32;;;;;;;4.88;1.60;;;10.60;91.70;;;;;;5079378;28;20040;-79
2023/04/14 00:25:57;;;;;;;6.38;1.50;;;10.50;91.80;;;;;;5096894;28;20040;-78
2023/04/14 00:28:23;;;;;;;6.28;1.83;;;10.50;91.80;;;;;;5097282;28;20034;-78
2023/04/14 00:30:48;;;;;;;7.18;1.95;;;10.50;91.80;;;;;;5079168;28;20488;-78
2023/04/14 00:33:14;;;;;;;6.97;2.17;;;10.50;91.80;;;;;;5062795;28;20494;-80
2023/04/14 00:35:40;;;;;;;7.93;2.00;;;10.60;91.90;;;;;;5079189;28;20036;-79
2023/04/14 00:38:06;;;;;;;6.15;1.70;;;10.60;91.80;;;;;;5078898;28;20059;-79
2023/04/14 00:40:31;;;;;;;9.27;2.20;;;10.60;91.80;;;;;;5062692;28;20032;-79
2023/04/14 00:42:57;;;;;;;6.50;2.30;;;10.60;91.90;;;;;;5078759;28;20040;-79
2023/04/14 00:45:24;;;;;;;5.05;1.83;;;10.60;92.00;;;;;;5078413;28;20032;-79
2023/04/14 00:47:50;;;;;;;7.45;2.40;;;10.50;92.00;;;;;;5078377;28;20036;-79
2023/04/14 00:50:17;;;;;;;5.97;1.88;;;10.50;92.20;;;;;;5062206;28;20024;-79
2023/04/14 00:52:45;;;;;;;8.88;2.38;;;10.50;92.40;;;;;;5061798;28;20059;-79
2023/04/14 00:55:11;;;;;;;6.47;2.25;;;10.50;92.30;;;;;;5096493;28;20089;-79
2023/04/14 00:57:38;;;;;;;6.43;2.30;;;10.50;92.40;;;;;;5078338;28;20028;-79
2023/04/14 01:00:05;;;;;;;5.97;2.40;;;10.50;92.50;;;;;;5078742;28;20031;-79
2023/04/14 01:02:31;;;;;;;5.47;2.20;;;10.50;92.60;;;;;;5078279;28;20028;-79
2023/04/14 01:04:57;;;;;;;7.10;2.90;;;10.50;92.60;;;;;;5044743;28;20035;-79
2023/04/14 01:07:24;;;;;;;4.55;2.03;;;10.50;92.60;;;;;;5096240;28;20028;-79
2023/04/14 01:09:51;;;;;;;5.25;2.20;;;10.60;92.70;;;;;;5096423;28;20032;-79
2023/04/14 01:12:45;;;;;;;5.70;2.35;;;10.50;92.70;;;;;;5078259;28;20524;-79
2023/04/14 01:15:25;;;;;;;7.32;2.50;;;10.50;92.80;;;;;;5077899;28;20032;-79
2023/04/14 01:18:01;;;;;;;8.93;2.72;;;10.60;92.80;;;;;;5077957;28;20024;-79
2023/04/14 01:20:33;;;;;;;6.13;2.63;;;10.50;92.80;;;;;;5095732;28;20464;-79
2023/04/14 01:23:02;;;;;;;7.18;2.53;;;10.50;92.80;;;;;;5078411;28;20111;-79
2023/04/14 01:25:42;;;;;;;5.78;2.35;;;10.50;92.80;;;;;;5095812;28;20158;-79
2023/04/14 01:28:37;;;;;;;4.97;2.28;;;10.50;92.80;;;;;;5096449;28;20028;-80
2023/04/14 01:31:28;;;;;;;6.70;2.50;;;10.50;92.70;;;;;;5077372;28;20032;-79
2023/04/14 01:34:29;;;;;;;5.78;2.42;;;10.50;92.70;;;;;;5095692;28;20028;-79
2023/04/14 01:37:07;;;;;;;5.80;2.55;;;10.50;92.70;;;;;;5035018;28;20507;-79
2023/04/14 01:39:45;;;;;;;7.38;2.50;;;10.40;92.80;;;;;;5078022;28;20024;-79
2023/04/14 01:42:17;;;;;;;7.05;2.70;;;10.40;92.90;;;;;;5095665;28;20528;-79
2023/04/14 01:44:47;;;;;;;6.82;2.58;;;10.40;92.90;;;;;;5078178;28;20050;-79
2023/04/14 01:47:16;;;;;;;6.53;2.35;;;10.40;93.00;;;;;;5077131;28;20487;-79
2023/04/14 01:49:43;;;;;;;5.05;2.13;;;10.30;93.00;;;;;;5077178;28;20478;-79
2023/04/14 01:52:12;;;;;;;9.60;2.28;;;10.40;93.10;;;;;;5060569;28;20062;-79
2023/04/14 01:54:40;;;;;;;7.85;2.83;;;10.40;93.10;;;;;;5077115;28;20111;-79
2023/04/14 01:57:07;;;;;;;6.53;2.72;;;10.40;93.10;;;;;;5095483;28;20139;-78
2023/04/14 01:59:35;;;;;;;5.93;2.58;;;10.40;93.10;;;;;;5061443;28;20134;-79
2023/04/14 02:02:04;;;;;;;5.68;2.60;;;10.30;93.10;;;;;;5061150;28;20415;-79
2023/04/14 02:04:31;;;;;;;7.75;2.50;;;10.30;93.00;;;;;;5076747;28;20020;-78
2023/04/14 02:06:59;;;;;;;7.85;2.38;;;10.40;93.10;;;;;;5077533;28;20028;-78
2023/04/14 02:09:26;;;;;;;6.38;2.40;;;10.40;93.00;;;;;;5076878;28;20094;-79
2023/04/14 02:11:53;;;;;;;5.40;2.30;;;10.40;93.00;;;;;;5077181;28;20032;-78
2023/04/14 02:14:21;;;;;;;8.85;2.88;;;10.30;93.00;;;;;;5060000;28;20491;-78
2023/04/14 02:16:48;;;;;;;9.93;3.10;;;10.20;93.00;;;;;;5095143;28;20376;-78
2023/04/14 02:19:17;;;;;;;5.40;2.85;;;10.10;93.30;;;;;;5060212;28;20032;-79
2023/04/14 02:21:44;;;;;;;6.50;2.90;;;10.10;93.50;;;;;;5095019;28;20109;-78
2023/04/14 02:24:10;;;;;;;6.90;2.83;;;10.00;93.50;;;;;;5094776;28;20032;-79
2023/04/14 02:26:42;;;;;;;10.20;3.05;;;10.10;93.50;;;;;;5059874;28;20105;-79
2023/04/14 02:29:14;;;;;;;4.93;2.67;;;10.10;93.50;;;;;;5094964;28;20479;-79
2023/04/14 02:31:44;;;;;;;9.20;2.95;;;10.10;93.50;;;;;;5094302;28;20464;-80
2023/04/14 02:34:12;;;;;;;6.75;2.75;;;10.10;93.50;;;;;;5076965;28;20020;-79
2023/04/14 02:36:53;;;;;;;6.20;2.30;;;10.10;93.40;;;;;;5094176;28;20059;-79
2023/04/14 02:39:24;;;;;;;7.00;2.45;;;10.10;93.40;;;;;;5076085;28;20035;-79
2023/04/14 02:42:00;;;;;;;7.53;3.00;;;10.10;93.40;;;;;;5060885;28;20029;-78
2023/04/14 02:44:31;;;;;;;6.38;3.17;;;10.00;93.40;;;;;;5094168;28;20076;-79
2023/04/14 02:47:06;;;;;;;6.95;3.28;;;10.00;93.50;;;;;;5094671;28;20112;-80
2023/04/14 02:49:46;;;;;;;6.22;2.95;;;10.00;93.60;;;;;;5076769;28;20020;-78
2023/04/14 02:52:16;;;;;;;6.32;2.90;;;10.00;93.60;;;;;;5076047;28;20028;-78
2023/04/14 02:54:43;;;;;;;9.50;3.42;;;9.90;93.60;;;;;;5093844;28;20463;-78
2023/04/14 02:57:09;;;;;;;8.25;3.35;;;9.90;93.80;;;;;;5076081;28;20039;-78
2023/04/14 02:59:36;;;;;;;18.17;4.72;;;9.90;93.80;;;;;;5075932;28;20460;-78
2023/04/14 03:02:04;;;;;;;10.10;3.67;;;9.90;93.90;;;;;;5059569;28;20552;-78
2023/04/14 03:04:32;;;;;;;6.35;3.60;;;9.80;93.90;;;;;;5060438;28;20517;-78
2023/04/14 03:06:59;;;;;;;10.45;3.40;;;9.90;93.90;;;;;;5059229;28;20040;-79
2023/04/14 03:09:26;;;;;;;6.93;3.20;;;9.80;94.00;;;;;;5094236;28;20028;-78
2023/04/14 03:11:56;;;;;;;7.88;3.40;;;9.80;94.10;;;;;;5075867;28;20487;-79
2023/04/14 03:14:22;;;;;;;10.88;3.65;;;9.80;94.10;;;;;;5094468;28;20039;-78
2023/04/14 03:16:52;;;;;;;8.65;3.78;;;9.80;94.10;;;;;;5059934;28;20032;-79
2023/04/14 03:19:22;;;;;;;7.70;3.38;;;9.80;94.10;;;;;;5094396;28;20150;-79
2023/04/14 03:21:53;;;;;;;8.10;3.10;;;9.80;94.10;;;;;;5093807;28;20059;-79
2023/04/14 03:24:27;;;;;;;10.18;3.45;;;9.80;94.10;;;;;;5076419;28;20021;-79
2023/04/14 03:27:07;;;;;;;7.45;3.72;;;9.80;94.10;;;;;;5059981;28;20036;-79
2023/04/14 03:29:42;;;;;;;4.97;3.03;;;9.80;94.10;;;;;;5076519;28;20028;-79
2023/04/14 03:32:09;;;;;;;6.35;3.20;;;9.90;94.10;;;;;;5075928;28;20020;-79
2023/04/14 03:34:39;;;;;;;8.75;3.47;;;9.90;94.10;;;;;;5059010;28;20480;-79
2023/04/14 03:37:07;;;;;;;8.32;4.25;;;9.90;94.10;;;;;;5076417;28;20118;-79
2023/04/14 03:39:37;;;;;;;8.32;3.67;;;9.80;94.00;;;;;;5075519;28;20119;-79
2023/04/14 03:42:06;;;;;;;9.82;3.75;;;9.80;94.10;;;;;;5093982;28;20457;-79
2023/04/14 03:44:35;;;;;;;7.07;3.67;;;9.70;94.10;;;;;;5059900;28;20028;-79
2023/04/14 03:47:02;;;;;;;7.50;3.25;;;9.80;94.10;;;;;;5076071;28;20036;-79
2023/04/14 03:49:32;;;;;;;7.68;3.40;;;9.80;94.10;;;;;;5076212;28;20028;-79
2023/04/14 03:52:02;;;;;;;8.25;3.50;;;9.80;94.00;;;;;;5076033;28;20044;-79
2023/04/14 03:54:29;;;;;;;8.68;3.33;;;9.80;94.00;;;;;;5093931;28;20364;-79
2023/04/14 03:56:56;;;;;;;5.82;3.50;;;9.80;94.00;;;;;;5074885;28;20055;-79
2023/04/14 03:59:24;;;;;;;8.85;3.67;;;9.80;94.00;;;;;;5059169;28;20035;-79
2023/04/14 04:01:52;;;;;;;9.40;4.13;;;9.80;93.90;;;;;;5093451;28;20406;-79
2023/04/14 04:04:19;;;;;;;7.13;4.20;;;9.70;93.90;;;;;;5059371;28;20032;-79
2023/04/14 04:06:45;;;;;;;8.07;3.78;;;9.70;93.90;;;;;;5058743;28;20036;-81
2023/04/14 04:09:13;;;;;;;11.45;3.20;;;9.70;93.90;;;;;;5075435;28;20028;-80
2023/04/14 04:11:40;;;;;;;7.68;3.67;;;9.70;93.90;;;;;;5075630;28;20032;-79
2023/04/14 04:14:07;;;;;;;8.57;3.63;;;9.70;93.90;;;;;;5059295;28;20024;-79
2023/04/14 04:16:35;;;;;;;8.25;3.65;;;9.70;93.90;;;;;;5093646;28;20037;-80
2023/04/14 04:19:04;;;;;;;8.60;4.03;;;9.70;93.90;;;;;;5075196;28;20029;-79
2023/04/14 04:21:33;;;;;;;7.70;4.18;;;9.70;93.90;;;;;;5093583;28;20046;-79
2023/04/14 04:24:00;;;;;;;6.78;4.00;;;9.70;93.90;;;;;;5093518;28;20028;-79
2023/04/14 04:26:26;;;;;;;9.05;3.83;;;9.70;93.90;;;;;;5074979;28;20032;-79
2023/04/14 04:28:56;;;;;;;10.77;4.10;;;9.70;93.90;;;;;;5075609;28;20368;-79
2023/04/14 04:31:23;;;;;;;9.18;4.30;;;9.70;93.90;;;;;;5092980;28;20036;-79
2023/04/14 04:33:50;;;;;;;10.85;5.35;;;9.70;93.80;;;;;;5093075;28;20021;-79
2023/04/14 04:36:17;;;;;;;9.07;3.88;;;9.60;93.90;;;;;;5094146;28;20062;-79
2023/04/14 04:38:43;;;;;;;7.65;3.58;;;9.60;94.00;;;;;;5097040;28;20028;-79
2023/04/14 04:41:21;;;;;;;9.63;3.75;;;9.60;94.00;;;;;;5078480;28;20035;-79
2023/04/14 04:43:47;;;;;;;5.97;3.55;;;9.60;93.90;;;;;;5096906;28;20028;-80
2023/04/14 04:46:29;;;;;;;8.23;3.78;;;9.70;93.80;;;;;;5061782;28;20365;-79
2023/04/14 04:48:56;;;;;;;9.32;4.35;;;9.70;93.80;;;;;;5078862;28;20032;-79
2023/04/14 04:51:22;;;;;;;9.73;5.60;;;9.70;93.80;;;;;;5061835;28;20060;-79
2023/04/14 04:53:47;;;;;;;9.35;4.25;;;9.60;93.70;;;;;;5078761;28;20063;-79
2023/04/14 04:56:13;;;;;;;12.40;4.55;;;9.60;93.80;;;;;;5061382;28;20072;-79
2023/04/14 04:58:39;;;;;;;8.35;4.22;;;9.50;93.90;;;;;;5061732;28;20460;-79
2023/04/14 05:01:11;;;;;;;10.10;4.20;;;9.50;93.90;;;;;;5062097;28;20028;-79
2023/04/14 05:03:36;;;;;;;9.95;4.65;;;9.50;93.90;;;;;;5078105;28;20086;-79
2023/04/14 05:06:03;;;;;;;9.77;4.05;;;9.40;94.00;;;;;;5096407;28;20503;-79
2023/04/14 05:08:29;;;;;;;10.13;4.78;;;9.40;94.10;;;;;;5078218;28;20039;-79
2023/04/14 05:10:54;;;;;;;7.90;4.10;;;9.40;94.20;;;;;;5077953;28;20028;-79
2023/04/14 05:13:21;;;;;;;7.22;4.50;;;9.40;94.30;;;;;;5078364;28;20028;-79
2023/04/14 05:15:47;;;;;;;10.15;4.10;;;9.40;94.30;;;;;;5061864;28;20461;-79
2023/04/14 05:18:13;;;;;;;12.38;5.00;;;9.40;94.20;;;;;;5077879;28;20034;-79
2023/04/14 05:20:38;;;;;;;8.20;4.03;;;9.50;94.20;;;;;;5095639;28;20028;-79
2023/04/14 05:23:04;;;;;;;9.95;4.70;;;9.50;94.30;;;;;;5077817;28;20032;-79
2023/04/14 05:25:30;;;;;;;14.32;5.13;;;9.50;94.30;;;;;;5095795;28;20354;-79
2023/04/14 05:27:55;;;;;;;10.90;5.82;;;9.50;94.30;;;;;;5061030;28;20054;-80
2023/04/14 05:30:21;;;;;;;10.25;5.43;;;9.40;94.40;;;;;;5077720;28;20035;-79
2023/04/14 05:32:47;;;;;;;11.23;4.75;;;9.40;94.50;;;;;;5061354;28;20452;-80
2023/04/14 05:35:12;;;;;;;8.32;4.50;;;9.40;94.60;;;;;;5095514;28;20111;-80
2023/04/14 05:37:38;;;;;;;10.48;4.93;;;9.40;94.90;;;;;;5077482;28;20035;-79
2023/04/14 05:40:04;;;;;;;9.10;4.88;;;9.40;95.10;;;;;;5061352;28;20403;-79
2023/04/14 05:42:30;;;;;;;10.48;4.60;;;9.40;95.20;;;;;;5077871;28;20066;-79
2023/04/14 05:44:56;;;;;;;12.85;5.60;;;9.40;95.10;;;;;;5077690;28;20063;-79
2023/04/14 05:47:21;;;;;;;10.63;5.05;;;9.30;95.40;;;;;;5059715;28;20032;-79
2023/04/14 05:49:47;;;;;;;10.77;4.28;;;9.20;95.80;;;;;;5077306;28;20028;-79
2023/04/14 05:52:13;;;;;;;9.95;4.57;;;9.20;96.00;;;;;;5094934;28;20028;-79
2023/04/14 05:54:38;;;;;;;11.05;4.53;;;9.20;95.90;;;;;;5076871;28;20024;-79
2023/04/14 05:57:04;;;;;;;10.40;5.55;;;9.20;95.90;;;;;;5060138;28;20067;-79
2023/04/14 05:59:30;;;;;;;12.70;4.60;;;9.20;96.10;;;;;;5044147;28;20040;-79
2023/04/14 06:01:56;;;;;;;12.18;4.68;;;9.20;96.40;;;;;;5060520;28;20034;-79
2023/04/14 06:04:25;;;;;;;9.60;4.35;;;9.20;96.40;;;;;;5060613;28;20036;-79
2023/04/14 06:06:50;;;;;;;10.20;4.97;;;9.20;96.50;;;;;;5060250;28;20508;-79
2023/04/14 06:09:16;;;;;;;13.90;4.70;;;9.30;96.50;;;;;;5043478;28;20036;-80
2023/04/14 06:11:41;;;;;;;12.18;4.63;;;9.30;96.60;;;;;;5076818;28;20028;-79
2023/04/14 06:14:07;;;;;;;13.15;5.18;;;9.40;96.60;;;;;;5076757;28;20046;-79
2023/04/14 06:16:33;;;;;;;15.10;5.03;;;9.40;96.60;;;;;;5060083;28;20032;-79
2023/04/14 06:18:59;;;;;;;14.45;5.20;;;9.40;96.60;;;;;;5076610;28;20028;-80
2023/04/14 06:21:24;;;;;;;12.27;4.60;;;9.40;96.70;;;;;;5060311;28;20035;-79
2023/04/14 06:23:50;;;;;;;10.05;4.43;;;9.50;96.70;;;;;;5060254;28;20494;-79
2023/04/14 06:26:16;;;;;;;11.68;4.72;;;9.60;96.70;;;;;;5076409;28;20408;-80
2023/04/14 06:28:41;;;;;;;13.55;5.35;;;9.60;96.60;;;;;;5076606;28;20035;-79
2023/04/14 06:31:07;;;;;;;13.02;4.55;;;9.50;96.90;;;;;;5076811;28;20058;-79
2023/04/14 06:33:32;;;;;;;9.73;4.60;;;9.50;97.10;;;;;;5076550;28;20039;-79
2023/04/14 06:35:58;;;;;;;13.75;5.22;;;9.60;97.20;;;;;;5094520;28;20036;-79
2023/04/14 06:38:24;;;;;;;15.48;5.05;;;9.70;97.30;;;;;;5060289;28;20024;-78
2023/04/14 06:40:50;;;;;;;10.60;4.30;;;9.80;97.10;;;;;;5043717;28;20028;-79
2023/04/14 06:43:16;;;;;;;11.60;4.78;;;9.80;96.90;;;;;;5060348;28;20436;-79
2023/04/14 06:45:42;;;;;;;9.98;4.90;;;9.80;97.00;;;;;;5076375;28;20127;-79
2023/04/14 06:48:08;;;;;;;13.85;6.07;;;9.90;97.10;;;;;;5060282;28;20114;-79
2023/04/14 06:50:34;;;;;;;14.98;5.40;;;10.00;97.20;;;;;;5076173;28;20387;-78
2023/04/14 06:52:59;;;;;;;13.63;5.20;;;10.00;97.10;;;;;;5076112;28;20039;-78
2023/04/14 06:55:25;;;;;;;11.25;4.72;;;9.90;97.50;;;;;;5094199;28;20060;-78
2023/04/14 06:57:51;;;;;;;14.25;4.93;;;10.00;97.60;;;;;;5059877;28;20119;-79
2023/04/14 07:00:17;;;;;;;9.25;3.83;;;10.10;97.30;;;;;;5075938;28;20103;-79
2023/04/14 07:02:43;;;;;;;11.95;4.40;;;10.20;97.10;;;;;;5076473;28;20024;-79
2023/04/14 07:05:09;;;;;;;7.65;4.00;;;10.30;96.60;;;;;;5076429;28;20043;-79
2023/04/14 07:07:35;;;;;;;14.35;4.60;;;10.50;96.40;;;;;;5075841;28;20036;-79
2023/04/14 07:10:01;;;;;;;10.75;4.25;;;10.50;96.50;;;;;;5075668;28;20028;-79
2023/04/14 07:12:26;;;;;;;11.18;3.83;;;10.50;96.10;;;;;;5075650;28;20043;-79
2023/04/14 07:14:52;;;;;;;13.52;4.55;;;10.60;96.00;;;;;;5075505;28;20046;-79
2023/04/14 07:17:18;;;;;;;13.98;4.55;;;10.70;95.80;;;;;;5075843;28;20110;-79
2023/04/14 07:19:45;;;;;;;10.63;3.95;;;10.80;95.70;;;;;;5059838;28;20123;-79
2023/04/14 07:22:10;;;;;;;15.43;4.55;;;10.80;95.90;;;;;;5075691;28;20422;-78
2023/04/14 07:24:37;;;;;;;13.35;4.28;;;11.00;95.50;;;;;;5075587;28;20054;-79
2023/04/14 07:27:02;;;;;;;12.57;4.28;;;11.00;95.30;;;;;;5075746;28;20040;-79
2023/04/14 07:29:28;;;;;;;13.48;4.00;;;11.00;95.20;;;;;;5059478;28;20101;-79
2023/04/14 07:31:54;;;;;;;10.82;3.45;;;11.10;94.80;;;;;;5058994;28;20036;-79
2023/04/14 07:34:20;;;;;;;12.45;4.05;;;11.10;94.80;;;;;;5093897;28;20024;-79
2023/04/14 07:36:45;;;;;;;12.18;4.18;;;11.20;95.10;;;;;;5093776;28;20040;-79
2023/04/14 07:39:11;;;;;;;8.90;3.65;;;11.40;95.40;;;;;;5042663;28;20029;-80
2023/04/14 07:41:37;;;;;;;13.30;3.60;;;11.50;95.20;;;;;;5075584;28;20492;-79
2023/04/14 07:44:02;;;;;;;9.48;3.67;;;11.60;95.00;;;;;;5042311;28;20372;-79
2023/04/14 07:46:28;;;;;;;10.02;3.58;;;11.70;94.40;;;;;;5058582;28;20047;-79
2023/04/14 07:48:54;;;;;;;11.75;3.40;;;11.60;94.00;;;;;;5093447;28;20029;-79
2023/04/14 07:51:20;;;;;;;10.93;3.55;;;11.70;94.70;;;;;;5059014;28;20085;-79
2023/04/14 07:53:45;;;;;;;12.68;3.55;;;11.70;94.50;;;;;;5075351;28;20028;-77
2023/04/14 07:56:11;;;;;;;8.35;3.10;;;11.80;93.80;;;;;;5093161;28;20062;-76
2023/04/14 07:58:37;;;;;;;10.18;3.60;;;11.90;93.70;;;;;;5075793;28;20097;-77
2023/04/14 08:01:04;;;;;;;7.93;2.90;;;12.00;93.50;;;;;;5058805;28;20028;-77
2023/04/14 08:03:29;;;;;;;13.70;3.25;;;12.10;93.70;;;;;;5077442;28;20028;-78
2023/04/14 08:05:56;;;;;;;8.25;2.72;;;12.20;94.30;;;;;;5077659;28;20401;-78
2023/04/14 08:08:22;;;;;;;10.15;2.50;;;12.30;94.00;;;;;;5075668;28;20103;-78
2023/04/14 08:10:48;;;;;;;10.50;2.67;;;12.40;93.20;;;;;;5076175;28;20032;-77
2023/04/14 08:13:14;;;;;;;9.68;2.78;;;12.50;92.80;;;;;;5079300;28;20051;-78
2023/04/14 08:15:39;;;;;;;10.18;2.78;;;12.70;92.50;;;;;;5079590;28;20084;-78
2023/04/14 08:18:05;;;;;;;10.70;2.75;;;12.70;92.30;;;;;;5079323;28;20035;-77
2023/04/14 08:20:31;;;;;;;12.88;2.50;;;12.90;92.40;;;;;;5096940;28;20028;-78
2023/04/14 08:22:57;;;;;;;10.40;2.65;;;12.90;92.10;;;;;;5078980;28;20043;-78
2023/04/14 08:25:23;;;;;;;7.93;2.50;;;13.00;92.10;;;;;;5062205;28;20352;-77
2023/04/14 08:27:48;;;;;;;8.55;2.38;;;13.10;92.00;;;;;;5097306;28;20372;-78
2023/04/14 08:30:14;;;;;;;12.45;2.78;;;13.20;91.70;;;;;;5079183;28;20031;-78
2023/04/14 08:32:40;;;;;;;11.30;2.30;;;13.30;91.10;;;;;;5078699;28;20533;-77
2023/04/14 08:35:06;;;;;;;8.35;1.85;;;13.30;90.30;;;;;;5078525;28;20034;-77
2023/04/14 08:37:31;;;;;;;9.20;2.00;;;13.30;90.80;;;;;;5045782;28;20448;-78
2023/04/14 08:39:57;;;;;;;7.60;2.00;;;13.40;90.40;;;;;;5078698;28;20032;-78
2023/04/14 08:42:24;;;;;;;10.88;2.00;;;13.50;90.60;;;;;;5045416;28;20044;-78
2023/04/14 08:44:51;;;;;;;9.07;2.05;;;13.60;89.80;;;;;;5096634;28;20028;-78
2023/04/14 08:47:21;;;;;;;9.57;1.80;;;13.70;89.50;;;;;;5096959;28;20376;-79
2023/04/14 08:49:56;;;;;;;11.07;1.95;;;13.80;87.90;;;;;;5078660;28;20025;-78
2023/04/14 08:52:27;;;;;;;10.10;1.92;;;13.90;88.60;;;;;;5096457;28;20105;-77
2023/04/14 08:54:55;;;;;;;6.15;1.85;;;14.10;88.70;;;;;;5077902;28;20035;-78
2023/04/14 08:57:23;;;;;;;10.68;1.92;;;14.20;87.50;;;;;;5096871;28;20101;-78
2023/04/14 08:59:50;;;;;;;9.82;1.58;;;14.20;86.10;;;;;;5062153;28;20118;-78
2023/04/14 09:02:17;;;;;;;9.75;1.92;;;14.30;84.30;;;;;;5096274;28;20032;-78
2023/04/14 09:04:44;;;;;;;8.25;2.28;;;14.40;84.60;;;;;;5096019;28;20486;-77
2023/04/14 09:07:11;;;;;;;8.82;2.00;;;14.40;86.10;;;;;;5095991;28;20028;-77
2023/04/14 09:09:37;;;;;;;8.05;1.58;;;14.50;84.60;;;;;;5061498;28;20096;-78
2023/04/14 09:12:03;;;;;;;5.88;1.40;;;14.60;82.90;;;;;;5078367;28;20409;-77
2023/04/14 09:14:29;;;;;;;11.75;1.70;;;14.70;81.40;;;;;;5077724;28;20055;-78
2023/04/14 09:16:56;;;;;;;6.70;1.10;;;14.70;80.20;;;;;;5077656;28;20028;-77
2023/04/14 09:19:25;;;;;;;9.90;1.90;;;14.80;79.50;;;;;;5077803;28;20040;-78
2023/04/14 09:21:51;;;;;;;8.02;1.45;;;14.80;78.40;;;;;;5077920;28;20028;-77
2023/04/14 09:24:22;;;;;;;7.38;1.45;;;14.90;78.90;;;;;;5044562;28;20118;-78
2023/04/14 09:26:49;;;;;;;7.47;1.38;;;15.10;79.00;;;;;;5062203;28;20066;-78
2023/04/14 09:29:14;;;;;;;5.55;1.45;;;15.10;78.80;;;;;;5077814;28;20036;-77
2023/04/14 09:31:40;;;;;;;7.45;1.33;;;15.10;78.90;;;;;;5077434;28;20385;-78
2023/04/14 09:34:16;;;;;;;6.95;1.10;;;15.20;77.30;;;;;;5077516;28;20032;-78
2023/04/14 09:36:43;;;;;;;6.70;1.52;;;15.30;75.30;;;;;;5077305;28;20032;-78
2023/04/14 09:39:17;;;;;;;4.13;0.88;;;15.40;77.90;;;;;;5077638;28;20468;-78
2023/04/14 09:41:46;;;;;;;5.57;0.80;;;15.50;76.30;;;;;;5060862;28;20433;-78
2023/04/14 09:44:12;;;;;;;7.10;1.23;;;15.50;74.10;;;;;;5077759;28;20456;-77
2023/04/14 09:46:55;;;;;;;8.13;1.15;;;15.70;73.60;;;;;;5077374;28;20042;-78
2023/04/14 09:49:21;;;;;;;4.00;0.63;;;15.90;73.40;;;;;;5077184;28;20032;-78
2023/04/14 09:51:48;;;;;;;6.25;0.80;;;16.00;69.70;;;;;;5060457;28;20032;-79
2023/04/14 09:54:25;;;;;;;3.72;0.50;;;16.10;68.30;;;;;;5077444;28;20372;-78
2023/04/14 09:56:54;;;;;;;4.47;0.40;;;16.10;67.30;;;;;;5095851;28;20047;-78
2023/04/14 09:59:49;;;;;;;5.65;0.70;;;16.20;66.50;;;;;;5095225;28;20020;-78
2023/04/14 10:02:15;;;;;;;4.65;0.75;;;16.30;66.40;;;;;;5055940;28;20393;-77
2023/04/14 10:04:41;;;;;;;5.15;0.60;;;16.20;65.10;;;;;;5076923;28;20028;-77
2023/04/14 10:07:07;;;;;;;6.78;0.70;;;16.30;65.60;;;;;;5060080;28;20537;-77
2023/04/14 10:09:36;;;;;;;2.45;0.50;;;16.30;65.10;;;;;;5095023;28;20024;-77
2023/04/14 10:12:07;;;;;;;4.82;0.40;;;16.40;63.80;;;;;;5076636;28;20024;-76
2023/04/14 10:14:34;;;;;;;5.35;0.73;;;16.40;63.40;;;;;;5076494;28;20031;-77
2023/04/14 10:17:01;;;;;;;3.38;0.60;;;16.50;64.50;;;;;;5059860;28;20028;-78
2023/04/14 10:19:28;;;;;;;2.33;0.60;;;16.60;64.80;;;;;;5060095;28;20051;-77
2023/04/14 10:21:54;;;;;;;6.30;0.77;;;16.60;62.00;;;;;;5076524;28;20024;-77
2023/04/14 10:24:20;;;;;;;4.43;0.43;;;16.70;61.60;;;;;;5059764;28;20032;-78
2023/04/14 10:26:48;;;;;;;4.00;0.80;;;16.80;61.20;;;;;;5077003;28;20028;-78
2023/04/14 10:29:15;;;;;;;2.47;0.50;;;16.80;62.50;;;;;;5094859;28;20051;-77
2023/04/14 10:31:59;;;;;;;4.50;0.60;;;17.00;61.70;;;;;;5076463;28;20464;-77
2023/04/14 10:34:25;;;;;;;2.13;0.30;;;17.10;61.00;;;;;;5093784;28;20035;-77
2023/04/14 10:36:51;;;;;;;2.67;0.32;;;17.20;59.70;;;;;;5059340;28;20039;-78
2023/04/14 10:39:25;;;;;;;2.88;0.70;;;17.20;57.90;;;;;;5059662;28;20024;-79
2023/04/14 10:41:51;;;;;;;4.43;0.40;;;17.20;59.40;;;;;;5094695;28;20043;-78
2023/04/14 10:44:25;;;;;;;3.25;0.60;;;17.30;59.60;;;;;;5076119;28;20110;-79
2023/04/14 10:46:52;;;;;;;3.22;0.50;;;17.40;58.20;;;;;;5075696;28;20062;-78
2023/04/14 10:49:39;;;;;;;5.13;0.55;;;17.40;58.10;;;;;;5094008;28;20032;-78
2023/04/14 10:52:11;;;;;;;3.60;0.50;;;17.40;56.80;;;;;;5076164;28;20438;-78
2023/04/14 10:55:02;;;;;;;4.57;0.60;;;17.40;57.90;;;;;;5094162;28;20349;-78
2023/04/14 10:57:29;;;;;;;5.10;0.35;;;17.50;56.90;;;;;;5094451;28;20093;-78
2023/04/14 10:59:56;;;;;;;6.22;0.60;;;17.60;57.40;;;;;;5076735;28;20360;-78
2023/04/14 11:02:29;;;;;;;4.93;0.65;;;17.70;58.40;;;;;;5075957;28;20082;-78
2023/04/14 11:05:05;;;;;;;2.45;0.47;;;17.70;57.40;;;;;;5094319;28;20060;-78
2023/04/14 11:07:45;;;;;;;5.25;0.63;;;17.80;59.00;;;;;;5059925;28;20082;-78
2023/04/14 11:10:20;;;;;;;2.65;0.55;;;17.80;58.00;;;;;;5076477;28;20040;-78
2023/04/14 11:12:48;;;;;;;4.20;0.57;;;17.90;58.40;;;;;;5093977;28;20089;-77
2023/04/14 11:15:15;;;;;;;2.17;0.60;;;18.10;56.40;;;;;;5075842;28;20020;-77
2023/04/14 11:17:42;;;;;;;3.92;0.50;;;18.20;55.40;;;;;;5075438;28;20036;-78
2023/04/14 11:20:18;;;;;;;4.97;0.60;;;18.20;55.20;;;;;;5059427;28;20551;-78
2023/04/14 11:22:44;;;;;;;3.70;0.50;;;18.00;56.30;;;;;;5093456;28;20130;-78
2023/04/14 11:25:15;;;;;;;3.08;0.55;;;17.70;55.70;;;;;;5093585;28;20133;-78
2023/04/14 11:27:42;;;;;;;3.47;0.50;;;17.50;56.40;;;;;;5075478;28;20043;-77
2023/04/14 11:30:18;;;;;;;3.60;0.70;;;17.50;58.10;;;;;;5093548;28;20032;-77
2023/04/14 11:32:49;;;;;;;5.80;0.88;;;17.60;58.10;;;;;;5060676;28;20028;-78
2023/04/14 11:35:15;;;;;;;4.25;0.60;;;17.50;57.20;;;;;;5075870;28;20525;-80
2023/04/14 11:37:41;;;;;;;5.57;0.75;;;17.20;57.40;;;;;;5058849;28;20028;-78
2023/04/14 11:40:11;;;;;;;5.50;0.95;;;17.00;58.00;;;;;;5075775;28;20031;-78
2023/04/14 11:42:37;;;;;;;4.47;0.93;;;17.00;58.20;;;;;;5093443;28;20028;-77
2023/04/14 11:45:03;;;;;;;2.65;0.63;;;16.90;58.00;;;;;;5094565;28;20035;-78
2023/04/14 11:47:30;;;;;;;2.95;0.95;;;16.90;58.50;;;;;;5062745;28;20048;-77
2023/04/14 11:49:56;;;;;;;2.72;0.55;;;16.70;57.50;;;;;;5079353;28;20384;-78
2023/04/14 11:52:22;;;;;;;4.70;0.70;;;16.70;57.50;;;;;;5097989;28;20032;-78
2023/04/14 11:54:48;;;;;;;5.35;1.02;;;16.60;57.80;;;;;;5097538;28;20032;-78
2023/04/14 11:57:16;;;;;;;4.40;1.02;;;16.50;58.30;;;;;;5079206;28;20048;-78
2023/04/14 11:59:43;;;;;;;5.28;0.82;;;16.40;58.50;;;;;;5063610;28;20040;-77
2023/04/14 12:02:20;;;;;;;5.88;0.70;;;16.20;58.30;;;;;;5079303;28;20028;-77
2023/04/14 12:04:48;;;;;;;6.10;0.90;;;16.20;58.70;;;;;;5097119;28;20083;-78
2023/04/14 12:07:16;;;;;;;5.07;1.58;;;16.20;59.60;;;;;;5079536;28;20056;-78
2023/04/14 12:09:43;;;;;;;4.63;0.70;;;16.00;58.80;;;;;;5097385;28;20024;-78
2023/04/14 12:12:14;;;;;;;7.68;1.02;;;16.00;58.80;;;;;;5078948;28;20024;-78
2023/04/14 12:14:41;;;;;;;8.70;1.25;;;16.00;59.60;;;;;;5078636;28;20039;-78
2023/04/14 12:17:08;;;;;;;3.58;1.10;;;16.10;60.70;;;;;;5079768;28;20115;-79
2023/04/14 12:19:36;;;;;;;7.05;1.30;;;16.30;61.70;;;;;;5097393;28;20039;-78
2023/04/14 12:22:03;;;;;;;5.65;0.85;;;16.30;61.30;;;;;;5079308;28;20435;-79
2023/04/14 12:24:39;;;;;;;6.28;1.10;;;16.40;61.10;;;;;;5062297;28;20036;-79
2023/04/14 12:27:06;;;;;;;9.02;1.38;;;16.50;60.60;;;;;;5097015;28;20081;-78
2023/04/14 12:29:33;;;;;;;5.50;1.17;;;16.70;60.60;;;;;;5096853;28;20035;-78
2023/04/14 12:32:00;;;;;;;5.60;0.93;;;16.70;60.40;;;;;;5062215;28;20039;-79
2023/04/14 12:34:27;;;;;;;4.40;0.88;;;16.80;59.70;;;;;;5078825;28;20035;-79
2023/04/14 12:36:52;;;;;;;5.28;1.17;;;16.90;59.90;;;;;;5096862;28;20032;-79
2023/04/14 12:39:21;;;;;;;4.35;0.65;;;17.10;61.00;;;;;;5096462;28;20085;-80
2023/04/14 12:41:47;;;;;;;8.90;1.13;;;17.00;58.10;;;;;;5078997;28;20024;-79
2023/04/14 12:44:15;;;;;;;4.35;1.02;;;16.80;58.90;;;;;;5078156;28;20112;-78
2023/04/14 12:46:51;;;;;;;4.28;0.85;;;16.70;59.50;;;;;;5096507;28;20158;-78
2023/04/14 12:49:35;;;;;;;4.30;1.00;;;17.00;60.80;;;;;;5078800;28;20039;-79
2023/04/14 12:52:02;;;;;;;3.10;1.00;;;17.10;58.90;;;;;;5096879;28;20043;-79
2023/04/14 12:54:47;;;;;;;6.20;1.00;;;17.10;58.60;;;;;;5078281;28;20115;-79